Time;durP1;ratioP1;P1;durP2;ratioP2;P2;SDS_P1;SDS_P2;PMS_P1;PMS_P2;Temp;Humidity;BMP_temperature;BMP_pressure;BME280_temperature;BME280_humidity;BME280_pressure;Samples;Min_cycle;Max_cycle;Signal;HPM_P1;HPM_P2
2022/07/17 00:03:28;;;;;;;8.83;1.67;;;;;;;13.49;95.13;101299.16;5182675;57;1139222;-67
2022/07/17 00:08:35;;;;;;;7.10;1.07;;;;;;;13.45;95.11;101308.80;5183074;56;1139281;-67
2022/07/17 00:13:41;;;;;;;3.67;1.20;;;;;;;13.41;95.46;101311.35;5186147;57;1139020;-67
2022/07/17 00:18:47;;;;;;;7.87;1.23;;;;;;;13.37;95.13;101310.25;5129336;57;1139052;-67
2022/07/17 00:23:52;;;;;;;5.70;1.50;;;;;;;13.34;94.98;101312.29;5071313;57;1139252;-67
2022/07/17 00:28:59;;;;;;;20.93;2.63;;;;;;;13.32;94.93;101320.38;5056960;57;1139163;-67
2022/07/17 00:34:04;;;;;;;1.03;0.93;;;;;;;13.31;94.96;101321.33;5126396;56;1141187;-67
2022/07/17 00:39:11;;;;;;;5.97;1.20;;;;;;;13.25;94.95;101332.45;5201537;55;1139139;-67
2022/07/17 00:44:17;;;;;;;12.87;1.73;;;;;;;13.16;95.06;101334.45;5175017;56;1139123;-67
2022/07/17 00:49:23;;;;;;;1.97;0.97;;;;;;;13.14;94.90;101339.00;5102986;57;1141131;-67
2022/07/17 00:54:31;;;;;;;11.00;1.73;;;;;;;13.09;94.97;101341.17;5081745;57;1139058;-67
2022/07/17 00:59:39;;;;;;;6.40;1.03;;;;;;;13.07;95.10;101347.55;5108916;58;1141149;-67
2022/07/17 01:04:44;;;;;;;6.20;1.33;;;;;;;13.03;95.09;101354.89;5109056;57;1139133;-67
2022/07/17 01:09:50;;;;;;;10.70;1.37;;;;;;;12.98;95.14;101355.73;5108848;57;1139088;-66
2022/07/17 01:14:58;;;;;;;8.57;1.67;;;;;;;12.92;95.44;101351.72;5108998;58;1141244;-67
2022/07/17 01:20:09;;;;;;;4.40;1.13;;;;;;;12.95;95.34;101355.48;5109056;57;1139050;-67
2022/07/17 01:25:17;;;;;;;7.00;1.23;;;;;;;12.99;95.19;101351.61;4964149;59;1139049;-67
2022/07/17 01:30:22;;;;;;;6.57;1.50;;;;;;;13.04;95.06;101359.25;4901981;59;1139060;-67
2022/07/17 01:35:29;;;;;;;5.80;1.10;;;;;;;13.00;94.90;101351.98;4957261;58;1139169;-67
2022/07/17 01:40:35;;;;;;;6.60;1.23;;;;;;;12.90;95.69;101353.64;4917577;59;1139132;-68
2022/07/17 01:45:42;;;;;;;5.73;1.10;;;;;;;12.81;95.04;101353.48;4884435;60;1139150;-67
2022/07/17 01:50:48;;;;;;;6.93;1.00;;;;;;;12.74;95.25;101349.56;4916121;59;1139339;-67
2022/07/17 01:55:54;;;;;;;4.40;1.23;;;;;;;12.68;95.39;101349.05;4953424;59;1139247;-66
2022/07/17 02:01:00;;;;;;;3.93;1.10;;;;;;;12.72;95.40;101347.50;4953444;59;1139089;-67
2022/07/17 02:06:06;;;;;;;6.97;1.13;;;;;;;12.69;95.36;101345.91;4914188;59;1139041;-67
2022/07/17 02:11:11;;;;;;;10.43;1.43;;;;;;;12.73;95.27;101348.72;4935448;59;1139373;-67
2022/07/17 02:16:18;;;;;;;6.87;1.30;;;;;;;12.69;94.97;101352.55;4921412;60;1141460;-67
2022/07/17 02:21:24;;;;;;;6.93;1.40;;;;;;;12.65;95.24;101355.08;5035345;56;1139089;-67
2022/07/17 02:26:29;;;;;;;5.87;0.80;;;;;;;12.59;95.74;101354.19;5214333;56;1139060;-67
2022/07/17 02:31:36;;;;;;;5.67;1.43;;;;;;;12.56;95.73;101353.08;5150385;56;1139152;-66
2022/07/17 02:36:42;;;;;;;3.97;1.10;;;;;;;12.52;96.21;101356.94;5136957;57;1139269;-67
2022/07/17 02:41:48;;;;;;;10.30;1.53;;;;;;;12.46;96.32;101354.23;5197535;56;1139060;-66
2022/07/17 02:46:54;;;;;;;5.40;1.33;;;;;;;12.50;96.27;101351.73;5244783;56;1138978;-67
2022/07/17 02:52:00;;;;;;;5.90;2.00;;;;;;;12.53;96.57;101352.81;5152236;57;1137092;-66
2022/07/17 02:57:06;;;;;;;4.27;1.17;;;;;;;12.51;96.89;101358.74;5163278;57;1137089;-67
2022/07/17 03:02:12;;;;;;;4.40;1.47;;;;;;;12.48;96.82;101368.25;5163349;57;1136843;-67
2022/07/17 03:07:18;;;;;;;5.87;1.57;;;;;;;12.42;97.04;101368.67;5153185;57;1137313;-67
2022/07/17 03:12:24;;;;;;;6.40;1.43;;;;;;;12.39;97.25;101373.34;5153081;57;1136974;-66
2022/07/17 03:17:30;;;;;;;11.17;1.50;;;;;;;12.36;97.34;101372.26;5163266;57;1136695;-66
2022/07/17 03:22:36;;;;;;;3.03;1.17;;;;;;;12.36;97.42;101382.39;5124761;57;1139030;-67
2022/07/17 03:27:42;;;;;;;4.83;1.30;;;;;;;12.35;97.67;101387.33;5075023;58;1136981;-67
2022/07/17 03:32:48;;;;;;;9.93;1.70;;;;;;;12.32;97.39;101384.41;5074890;58;1137840;-67
2022/07/17 03:37:54;;;;;;;9.07;1.73;;;;;;;12.40;97.54;101390.48;5048208;58;1137012;-67
2022/07/17 03:42:59;;;;;;;2.70;1.20;;;;;;;12.48;97.26;101389.47;5116853;57;1136933;-68
2022/07/17 03:48:06;;;;;;;4.13;1.20;;;;;;;12.49;97.40;101393.82;5092882;57;1137338;-67
2022/07/17 03:53:12;;;;;;;5.90;1.53;;;;;;;12.48;97.41;101393.92;5103098;57;1136761;-67
2022/07/17 03:58:18;;;;;;;11.90;2.60;;;;;;;12.49;97.51;101406.23;5043315;58;1136919;-67
2022/07/17 04:03:23;;;;;;;6.43;1.40;;;;;;;12.51;98.08;101405.17;5049615;57;1138971;-66
2022/07/17 04:08:29;;;;;;;5.70;0.83;;;;;;;12.54;98.82;101406.73;5124517;57;1136959;-66
2022/07/17 04:13:35;;;;;;;3.83;1.33;;;;;;;12.55;98.86;101406.63;5128476;57;1136906;-66
2022/07/17 04:18:41;;;;;;;3.33;1.20;;;;;;;12.62;99.42;101409.70;5128908;57;1134808;-66
2022/07/17 04:23:47;;;;;;;14.53;0.97;;;;;;;12.66;99.49;101416.02;5035049;58;1135135;-66
2022/07/17 04:28:53;;;;;;;3.67;1.30;;;;;;;12.68;99.98;101422.03;5046386;58;1141335;-66
2022/07/17 04:33:58;;;;;;;8.50;1.20;;;;;;;12.75;100.00;101428.24;5047923;57;1138983;-67
2022/07/17 04:39:03;;;;;;;2.10;1.07;;;;;;;12.78;100.00;101429.36;5133743;56;1141361;-67
2022/07/17 04:44:09;;;;;;;5.97;1.20;;;;;;;12.83;100.00;101433.86;5143872;56;1141098;-67
2022/07/17 04:49:15;;;;;;;3.37;1.10;;;;;;;12.84;100.00;101429.74;5206251;56;1141080;-67
2022/07/17 04:54:21;;;;;;;4.43;1.23;;;;;;;12.91;100.00;101434.98;5128770;57;1141117;-66
2022/07/17 04:59:27;;;;;;;8.40;2.57;;;;;;;12.98;100.00;101432.75;5122613;57;1141084;-67
2022/07/17 05:04:34;;;;;;;10.03;1.73;;;;;;;13.04;100.00;101435.78;5119030;57;1141108;-66
2022/07/17 05:09:40;;;;;;;2.80;1.03;;;;;;;13.12;100.00;101441.03;5087272;57;1143216;-67
2022/07/17 05:14:47;;;;;;;5.67;1.70;;;;;;;13.20;100.00;101452.80;5107753;57;1141137;-67
2022/07/17 05:19:54;;;;;;;5.00;1.47;;;;;;;13.28;100.00;101461.55;5042600;58;1141066;-67
2022/07/17 05:24:59;;;;;;;5.20;1.87;;;;;;;13.38;100.00;101461.22;5008393;58;1141160;-66
2022/07/17 05:30:05;;;;;;;7.10;1.57;;;;;;;13.53;100.00;101465.39;5045929;58;1141353;-66
2022/07/17 05:35:11;;;;;;;7.83;1.67;;;;;;;13.68;100.00;101474.03;5078179;57;1141123;-67
2022/07/17 05:40:17;;;;;;;10.87;1.73;;;;;;;13.78;100.00;101476.83;5158957;56;1141270;-67
2022/07/17 05:45:23;;;;;;;12.03;2.77;;;;;;;13.96;100.00;101478.94;5104817;57;1143240;-66
2022/07/17 05:50:29;;;;;;;7.53;2.30;;;;;;;14.12;100.00;101489.73;5158926;57;1143151;-67
2022/07/17 05:55:35;;;;;;;6.53;2.10;;;;;;;14.19;100.00;101471.87;5138149;57;1141249;-66
2022/07/17 06:00:41;;;;;;;10.63;1.87;;;;;;;14.42;99.56;101500.21;5075073;58;1141154;-66
2022/07/17 06:05:46;;;;;;;9.10;1.67;;;;;;;14.47;98.69;101502.52;5075048;58;1141246;-66
2022/07/17 06:10:52;;;;;;;8.23;1.77;;;;;;;14.61;99.45;101494.78;5075106;58;1139142;-66
2022/07/17 06:15:58;;;;;;;5.20;1.40;;;;;;;14.72;98.33;101492.95;5075170;58;1139062;-66
2022/07/17 06:21:04;;;;;;;7.90;2.30;;;;;;;14.86;98.24;101502.50;5097380;56;1138958;-67
2022/07/17 06:26:10;;;;;;;6.13;1.30;;;;;;;15.05;98.56;101506.73;5181083;56;1139093;-67
2022/07/17 06:31:17;;;;;;;11.00;1.53;;;;;;;15.27;97.67;101516.51;5111867;56;1139018;-66
2022/07/17 06:36:23;;;;;;;12.10;2.33;;;;;;;15.40;96.71;101517.19;5079166;57;1141192;-66
2022/07/17 06:41:28;;;;;;;4.07;1.13;;;;;;;15.45;96.46;101514.97;5079286;57;1141116;-67
2022/07/17 06:46:34;;;;;;;3.83;0.93;;;;;;;15.62;96.76;101516.77;5094090;57;1139180;-66
2022/07/17 06:51:40;;;;;;;10.47;1.67;;;;;;;15.73;96.31;101518.08;5163194;57;1139195;-67
2022/07/17 06:56:46;;;;;;;8.10;2.20;;;;;;;15.87;95.58;101526.26;5163367;57;1141136;-66
2022/07/17 07:01:52;;;;;;;6.83;1.13;;;;;;;16.06;95.45;101513.88;5118527;57;1139251;-66
2022/07/17 07:06:57;;;;;;;7.63;1.40;;;;;;;16.29;95.01;101517.77;5085994;57;1139033;-66
2022/07/17 07:12:04;;;;;;;6.40;1.33;;;;;;;16.45;93.56;101520.81;5163145;57;1138974;-67
2022/07/17 07:17:10;;;;;;;6.43;1.53;;;;;;;16.54;93.12;101520.84;5121033;57;1138967;-67
2022/07/17 07:22:16;;;;;;;7.27;1.20;;;;;;;16.64;91.43;101523.61;5161193;57;1139269;-66
2022/07/17 07:27:22;;;;;;;7.30;1.67;;;;;;;16.79;91.69;101515.59;5096943;57;1139073;-67
2022/07/17 07:32:28;;;;;;;8.00;1.53;;;;;;;17.08;91.74;101520.19;5115213;57;1139067;-67
2022/07/17 07:37:34;;;;;;;9.43;0.90;;;;;;;17.28;90.53;101511.70;5104260;57;1139013;-66
2022/07/17 07:42:41;;;;;;;4.77;1.10;;;;;;;17.28;89.11;101518.37;5156072;57;1139245;-65
2022/07/17 07:47:50;;;;;;;7.90;1.57;;;;;;;17.54;89.41;101523.58;5134970;57;1139027;-65
2022/07/17 07:52:57;;;;;;;7.33;1.33;;;;;;;17.61;82.62;101519.83;5158162;57;1137058;-67
2022/07/17 07:58:10;;;;;;;6.10;1.23;;;;;;;17.64;84.37;101521.77;5121875;57;1137125;-66
2022/07/17 08:03:17;;;;;;;4.87;1.40;;;;;;;17.75;82.66;101526.98;5129277;57;1137078;-66
2022/07/17 08:08:23;;;;;;;3.67;1.30;;;;;;;17.74;79.09;101524.44;5140451;57;1137260;-66
2022/07/17 08:13:29;;;;;;;4.23;1.07;;;;;;;18.03;79.22;101537.80;5117241;57;1137098;-66
2022/07/17 08:18:35;;;;;;;3.97;0.90;;;;;;;17.80;77.30;101546.14;5171674;56;1137009;-66
2022/07/17 08:23:40;;;;;;;2.50;0.83;;;;;;;17.66;79.00;101553.25;5182264;56;1136898;-66
2022/07/17 08:28:46;;;;;;;4.70;1.17;;;;;;;17.80;76.04;101558.19;5145846;57;1137303;-67
2022/07/17 08:33:53;;;;;;;5.93;0.93;;;;;;;17.63;76.59;101570.03;5193494;56;1137035;-66
2022/07/17 08:38:59;;;;;;;5.50;1.20;;;;;;;17.47;77.38;101566.06;5190704;56;1136970;-65
2022/07/17 08:44:08;;;;;;;5.60;1.30;;;;;;;17.74;77.46;101568.09;5086977;57;1137054;-66
2022/07/17 08:49:15;;;;;;;3.77;0.87;;;;;;;17.67;75.39;101571.48;5001710;58;1136984;-66
2022/07/17 08:54:22;;;;;;;9.87;1.03;;;;;;;17.71;79.42;101573.75;5148685;57;1136947;-66
2022/07/17 08:59:28;;;;;;;6.47;1.03;;;;;;;18.00;77.98;101567.56;5164198;56;1136942;-67
2022/07/17 09:04:34;;;;;;;6.73;1.20;;;;;;;18.12;74.87;101569.09;5160756;56;1137148;-66
2022/07/17 09:09:41;;;;;;;5.03;1.43;;;;;;;17.92;74.72;101566.42;5163733;56;1134979;-66
2022/07/17 09:14:47;;;;;;;5.97;1.37;;;;;;;17.77;74.29;101572.33;5149340;57;1134955;-67
2022/07/17 09:19:52;;;;;;;5.13;1.10;;;;;;;18.11;74.06;101565.58;5138498;57;1139058;-66
2022/07/17 09:25:00;;;;;;;7.43;1.07;;;;;;;18.07;74.41;101570.85;5209314;56;1138968;-67
2022/07/17 09:30:12;;;;;;;6.43;1.13;;;;;;;17.90;74.65;101571.06;5217010;56;1139110;-66
2022/07/17 09:35:18;;;;;;;4.30;1.47;;;;;;;18.16;75.87;101574.53;5217223;56;1139069;-67
2022/07/17 09:45:48;;;;;;;6.07;1.63;;;;;;;18.76;69.85;101576.47;5156365;56;1139148;-67
2022/07/17 09:50:54;;;;;;;5.50;1.20;;;;;;;18.43;70.52;101579.98;5135534;57;1139030;-68
2022/07/17 09:56:02;;;;;;;4.40;0.80;;;;;;;18.61;69.74;101578.28;5112129;57;1139028;-67
2022/07/17 10:01:08;;;;;;;8.73;1.30;;;;;;;18.91;68.46;101570.48;5046837;57;1139169;-67
2022/07/17 10:06:14;;;;;;;2.17;1.03;;;;;;;18.83;65.99;101572.20;5107781;56;1139270;-67
2022/07/17 10:11:24;;;;;;;3.40;0.57;;;;;;;18.72;68.27;101577.75;5128853;56;1139205;-67
2022/07/17 10:16:33;;;;;;;5.42;0.88;;;;;;;18.61;67.86;101574.27;5124513;57;1138979;-67
2022/07/17 10:21:39;;;;;;;2.98;0.85;;;;;;;18.84;66.79;101573.89;5127962;56;1139036;-66
2022/07/17 10:26:49;;;;;;;6.25;1.02;;;;;;;18.83;66.59;101578.90;5102638;57;1139062;-67
2022/07/17 10:31:55;;;;;;;4.75;0.50;;;;;;;18.85;66.47;101576.42;5085569;57;1139038;-67
2022/07/17 10:37:00;;;;;;;5.10;1.02;;;;;;;19.07;64.73;101583.27;5057070;57;1139021;-68
2022/07/17 10:42:06;;;;;;;2.33;0.70;;;;;;;19.04;64.64;101579.53;5045539;58;1139005;-68
2022/07/17 10:47:12;;;;;;;5.07;0.67;;;;;;;19.08;64.49;101574.23;5186468;56;1139049;-67
2022/07/17 10:52:18;;;;;;;3.20;0.85;;;;;;;19.15;65.64;101579.83;5126828;57;1139181;-67
2022/07/17 10:57:24;;;;;;;5.53;1.30;;;;;;;19.36;64.23;101573.72;5051295;57;1139046;-68
2022/07/17 11:02:31;;;;;;;3.77;0.98;;;;;;;19.41;64.36;101590.19;5045907;57;1139080;-67
2022/07/17 11:07:37;;;;;;;3.60;1.00;;;;;;;19.48;63.68;101583.74;5057582;57;1139069;-67
2022/07/17 11:12:43;;;;;;;4.17;1.05;;;;;;;19.72;62.92;101587.20;5175767;56;1139144;-67
2022/07/17 11:17:51;;;;;;;4.87;0.80;;;;;;;19.96;62.61;101580.74;5247704;56;1139132;-67
2022/07/17 11:22:59;;;;;;;2.50;0.60;;;;;;;20.17;61.97;101587.95;5203807;56;1139088;-67
2022/07/17 11:28:05;;;;;;;5.00;1.07;;;;;;;20.38;61.23;101586.81;5161595;57;1139257;-67
2022/07/17 11:33:17;;;;;;;5.72;1.05;;;;;;;20.20;61.78;101588.16;5161723;57;1139041;-67
2022/07/17 11:38:29;;;;;;;9.43;1.37;;;;;;;20.24;62.37;101574.27;5161572;57;1139048;-67
2022/07/17 11:43:43;;;;;;;1.87;0.80;;;;;;;20.35;59.61;101578.53;5152726;57;1139064;-67
2022/07/17 11:48:49;;;;;;;1.35;0.60;;;;;;;20.45;59.32;101582.02;5155520;57;1136972;-67
2022/07/17 11:54:00;;;;;;;5.33;1.40;;;;;;;20.58;58.03;101583.78;5154567;57;1136948;-66
2022/07/17 11:59:07;;;;;;;3.10;0.90;;;;;;;20.77;57.90;101578.70;5164217;57;1136936;-67
2022/07/17 12:04:15;;;;;;;6.22;1.15;;;;;;;20.88;56.20;101589.67;5163910;57;1136935;-67
2022/07/17 12:09:28;;;;;;;3.08;1.22;;;;;;;20.87;56.53;101581.26;5163925;56;1137218;-67
2022/07/17 12:14:33;;;;;;;3.50;1.17;;;;;;;20.65;57.89;101583.47;5164478;56;1137217;-66
2022/07/17 12:19:39;;;;;;;2.47;0.93;;;;;;;20.84;58.02;101578.38;5163845;56;1137191;-67
2022/07/17 12:24:47;;;;;;;7.70;0.88;;;;;;;20.92;56.93;101577.09;5091320;56;1137255;-67
2022/07/17 12:29:52;;;;;;;2.45;1.50;;;;;;;20.84;56.93;101569.47;5079950;58;1136862;-66
2022/07/17 12:34:58;;;;;;;2.62;1.25;;;;;;;20.89;58.31;101573.38;5079710;58;1136924;-67
2022/07/17 12:40:05;;;;;;;3.80;1.25;;;;;;;20.96;56.50;101575.75;5079745;58;1137117;-67
2022/07/17 12:45:12;;;;;;;4.50;1.35;;;;;;;20.97;56.42;101572.06;5154088;56;1137163;-67
2022/07/17 12:50:17;;;;;;;4.80;0.65;;;;;;;20.89;57.65;101571.19;5250460;56;1136981;-66
2022/07/17 12:55:23;;;;;;;3.98;0.78;;;;;;;21.14;53.95;101572.13;5150280;57;1135124;-67
2022/07/17 13:00:29;;;;;;;5.00;1.30;;;;;;;21.28;54.83;101576.92;5163741;57;1135012;-67
2022/07/17 13:05:34;;;;;;;4.75;0.85;;;;;;;21.32;54.80;101562.98;5163601;57;1135082;-68
2022/07/17 13:10:40;;;;;;;5.55;1.32;;;;;;;21.59;55.08;101559.17;5164177;57;1139024;-66
2022/07/17 13:15:46;;;;;;;3.22;0.78;;;;;;;21.81;52.76;101563.09;5163814;57;1139004;-66
2022/07/17 13:20:52;;;;;;;3.10;1.20;;;;;;;21.87;51.56;101558.87;5163987;56;1139093;-66
2022/07/17 13:25:58;;;;;;;4.17;1.10;;;;;;;21.92;51.48;101546.59;5163685;56;1139048;-67
2022/07/17 13:31:04;;;;;;;6.75;1.35;;;;;;;21.81;52.35;101547.44;5163747;56;1139020;-66
2022/07/17 13:36:10;;;;;;;4.87;1.50;;;;;;;21.99;53.47;101553.05;5163508;56;1139064;-66
2022/07/17 13:41:17;;;;;;;2.65;0.82;;;;;;;22.23;51.85;101544.09;5163442;56;1138995;-67
2022/07/17 13:46:23;;;;;;;4.55;1.10;;;;;;;22.35;51.35;101560.75;5173168;56;1139035;-66
2022/07/17 13:51:30;;;;;;;2.37;0.70;;;;;;;22.19;50.17;101560.26;5239276;56;1139054;-66
2022/07/17 13:56:36;;;;;;;13.03;1.10;;;;;;;22.25;46.88;101558.25;5162237;56;1139004;-67
2022/07/17 14:01:41;;;;;;;1.77;0.72;;;;;;;22.30;48.64;101550.50;5161208;57;1141107;-67
2022/07/17 14:06:47;;;;;;;3.25;0.60;;;;;;;22.34;50.67;101541.04;5161080;57;1139071;-67
2022/07/17 14:11:55;;;;;;;2.10;0.80;;;;;;;22.42;49.26;101545.09;5160839;57;1139042;-67
2022/07/17 14:17:01;;;;;;;1.62;0.70;;;;;;;22.50;48.47;101550.11;5161159;57;1139087;-67
2022/07/17 14:22:06;;;;;;;3.08;0.90;;;;;;;22.43;47.07;101548.63;5133586;57;1139078;-67
2022/07/17 14:27:12;;;;;;;1.62;1.02;;;;;;;22.28;48.09;101529.61;5216817;56;1139037;-67
2022/07/17 14:32:18;;;;;;;4.40;1.05;;;;;;;22.28;48.09;101529.61;5216707;56;1139026;-66
2022/07/17 14:37:24;;;;;;;2.35;0.95;;;;;;;22.17;49.16;101529.94;5216779;56;1138968;-66
2022/07/17 14:42:33;;;;;;;1.40;0.85;;;;;;;22.42;48.50;101528.91;5209871;56;1138916;-66
2022/07/17 14:47:39;;;;;;;1.57;0.70;;;;;;;22.38;50.28;101524.87;5188590;56;1139026;-67
2022/07/17 14:52:45;;;;;;;2.75;0.90;;;;;;;22.69;49.59;101520.91;5237445;56;1138952;-66
2022/07/17 14:57:51;;;;;;;1.92;1.20;;;;;;;22.93;48.62;101519.16;5172988;56;1139028;-66
2022/07/17 15:02:57;;;;;;;2.12;1.10;;;;;;;22.90;47.33;101518.19;5212590;56;1139314;-66
2022/07/17 15:08:03;;;;;;;3.65;1.00;;;;;;;22.85;47.68;101517.35;5221081;56;1139057;-66
2022/07/17 15:13:09;;;;;;;1.85;0.95;;;;;;;22.80;48.40;101513.81;5221185;56;1139150;-67
2022/07/17 15:18:14;;;;;;;2.72;0.78;;;;;;;22.86;49.28;101506.89;5221228;56;1139157;-66
2022/07/17 15:23:20;;;;;;;7.45;0.90;;;;;;;22.92;47.14;101510.73;5188953;56;1139058;-67
2022/07/17 15:28:26;;;;;;;5.97;1.00;;;;;;;22.94;46.23;101502.80;5208720;56;1139061;-67
2022/07/17 15:33:32;;;;;;;3.33;1.47;;;;;;;23.02;47.41;101503.28;5220686;56;1139023;-66
2022/07/17 15:38:40;;;;;;;5.85;1.55;;;;;;;23.21;48.76;101502.84;5172155;56;1138796;-67
2022/07/17 15:43:46;;;;;;;2.37;1.15;;;;;;;23.32;47.17;101502.95;5213729;56;1139253;-67
2022/07/17 15:48:53;;;;;;;5.62;1.70;;;;;;;23.05;45.07;101507.83;5234050;56;1139044;-67
2022/07/17 15:53:59;;;;;;;3.67;0.90;;;;;;;22.83;46.48;101500.49;5194679;56;1139060;-67
2022/07/17 15:59:05;;;;;;;1.07;0.88;;;;;;;22.82;45.88;101497.97;5155468;57;1139274;-66
2022/07/17 16:04:11;;;;;;;2.17;0.90;;;;;;;22.88;47.07;101504.03;5155435;57;1139097;-67
2022/07/17 16:09:18;;;;;;;0.93;0.60;;;;;;;22.86;44.76;101506.89;5155299;57;1139169;-68
2022/07/17 16:14:24;;;;;;;4.53;0.90;;;;;;;22.74;42.30;101500.17;5155859;57;1139010;-67
2022/07/17 16:19:29;;;;;;;1.25;0.90;;;;;;;22.67;43.23;101501.36;5125355;57;1139262;-67
2022/07/17 16:24:35;;;;;;;1.67;0.70;;;;;;;22.59;43.56;101500.56;5227685;56;1137010;-67
2022/07/17 16:29:41;;;;;;;0.95;0.68;;;;;;;22.60;44.32;101493.66;5206255;56;1137084;-66
2022/07/17 16:34:47;;;;;;;2.02;0.82;;;;;;;22.62;43.74;101488.06;5155970;57;1136959;-67
2022/07/17 16:39:53;;;;;;;3.15;0.68;;;;;;;22.70;43.92;101485.34;5156060;57;1136996;-66
2022/07/17 16:44:58;;;;;;;2.75;0.78;;;;;;;22.61;41.17;101485.87;5155804;57;1136986;-67
2022/07/17 16:50:04;;;;;;;2.17;0.80;;;;;;;22.58;43.46;101486.75;5159221;57;1137035;-67
2022/07/17 16:55:10;;;;;;;1.82;1.15;;;;;;;22.54;41.57;101482.70;5131943;57;1136972;-67
2022/07/17 17:00:16;;;;;;;1.32;0.80;;;;;;;22.35;42.18;101486.62;5116356;57;1137151;-67
2022/07/17 17:05:22;;;;;;;1.70;1.60;;;;;;;22.29;42.81;101491.37;5120655;57;1136995;-67
2022/07/17 17:10:28;;;;;;;2.55;1.40;;;;;;;22.27;43.58;101489.36;5123877;57;1136876;-66
2022/07/17 17:15:34;;;;;;;2.70;0.70;;;;;;;22.21;43.68;101494.07;5116006;57;1137086;-67
2022/07/17 17:20:41;;;;;;;3.95;1.15;;;;;;;22.05;42.94;101494.93;5134361;57;1137018;-67
2022/07/17 17:25:47;;;;;;;1.70;0.72;;;;;;;21.96;43.42;101497.28;5126926;57;1137135;-67
2022/07/17 17:30:53;;;;;;;2.92;1.50;;;;;;;21.91;44.19;101495.08;5161619;57;1136924;-67
2022/07/17 17:35:58;;;;;;;2.62;1.30;;;;;;;21.85;44.35;101492.20;5161555;57;1137200;-67
2022/07/17 17:41:04;;;;;;;3.85;1.45;;;;;;;21.67;44.53;101488.36;5161598;57;1136950;-67
2022/07/17 17:46:10;;;;;;;6.75;1.20;;;;;;;21.62;45.30;101489.36;5161207;57;1137220;-67
2022/07/17 17:51:17;;;;;;;6.85;2.58;;;;;;;21.49;45.00;101493.05;5246101;56;1136944;-67
2022/07/17 17:56:23;;;;;;;4.53;1.27;;;;;;;21.40;45.88;101494.37;5163654;56;1136964;-67
2022/07/17 18:01:28;;;;;;;2.62;1.52;;;;;;;21.39;46.01;101494.02;5159422;57;1134906;-67
2022/07/17 18:06:35;;;;;;;4.03;1.52;;;;;;;21.31;46.02;101491.34;5159370;56;1134993;-67
2022/07/17 18:11:42;;;;;;;7.67;3.33;;;;;;;21.27;46.49;101491.81;5159527;56;1138980;-67
2022/07/17 18:16:47;;;;;;;4.20;2.83;;;;;;;21.15;46.72;101497.14;5159581;56;1139390;-67
2022/07/17 18:21:54;;;;;;;2.50;2.07;;;;;;;21.11;47.34;101498.47;5159403;57;1139038;-67
2022/07/17 18:27:00;;;;;;;6.58;2.15;;;;;;;21.10;47.83;101491.41;5120988;57;1139051;-67
2022/07/17 18:32:06;;;;;;;2.70;1.92;;;;;;;21.10;48.20;101494.94;5159286;57;1139065;-67
2022/07/17 18:37:13;;;;;;;4.90;1.82;;;;;;;21.07;48.09;101507.39;5159141;57;1139277;-67
2022/07/17 18:42:19;;;;;;;4.30;1.70;;;;;;;21.01;48.19;101514.76;5160440;56;1138937;-67
2022/07/17 18:47:25;;;;;;;4.17;1.60;;;;;;;20.83;48.42;101522.91;5245736;56;1139095;-67
2022/07/17 18:52:31;;;;;;;4.28;1.75;;;;;;;20.77;49.01;101524.92;5245756;56;1139274;-67
2022/07/17 18:57:37;;;;;;;7.40;1.65;;;;;;;20.73;49.31;101528.92;5245818;56;1139005;-66
2022/07/17 19:02:42;;;;;;;3.52;1.62;;;;;;;20.63;49.85;101533.55;5245626;56;1139287;-68
2022/07/17 19:07:48;;;;;;;1.22;1.10;;;;;;;20.46;50.27;101546.58;5247304;56;1139056;-69
2022/07/17 19:12:54;;;;;;;2.85;1.35;;;;;;;20.32;50.79;101556.84;5229889;56;1139055;-67
2022/07/17 19:18:00;;;;;;;5.85;0.98;;;;;;;20.17;51.24;101562.94;5247569;56;1138975;-67
2022/07/17 19:23:07;;;;;;;1.62;1.10;;;;;;;20.01;51.82;101565.02;5201874;56;1139061;-67
2022/07/17 19:28:12;;;;;;;5.50;1.45;;;;;;;19.91;52.40;101573.63;5205423;56;1139074;-66
2022/07/17 19:33:19;;;;;;;8.35;1.80;;;;;;;19.91;52.87;101579.85;5247656;56;1139130;-67
2022/07/17 19:38:24;;;;;;;2.70;1.55;;;;;;;19.89;52.97;101586.36;5224197;56;1139084;-66
2022/07/17 19:43:32;;;;;;;4.75;2.40;;;;;;;19.82;53.23;101590.18;5161723;56;1139321;-66
2022/07/17 19:48:37;;;;;;;4.78;2.30;;;;;;;19.75;53.53;101588.24;5211101;56;1139051;-66
2022/07/17 19:53:43;;;;;;;5.20;1.92;;;;;;;19.70;54.04;101591.91;5213078;56;1139147;-66
2022/07/17 19:58:52;;;;;;;9.00;2.17;;;;;;;19.66;54.38;101598.06;5161643;57;1139031;-67
2022/07/17 20:03:58;;;;;;;3.62;1.57;;;;;;;19.66;54.70;101594.04;5165510;56;1139056;-66
2022/07/17 20:09:05;;;;;;;2.47;1.50;;;;;;;19.65;55.10;101596.37;5169797;56;1139001;-67
2022/07/17 20:14:10;;;;;;;1.50;1.37;;;;;;;19.62;55.21;101591.30;5163222;56;1139047;-67
2022/07/17 20:19:16;;;;;;;2.35;1.52;;;;;;;19.56;55.71;101587.38;5169151;56;1139034;-66
2022/07/17 20:24:22;;;;;;;5.42;1.72;;;;;;;19.54;55.83;101584.03;5179306;56;1138945;-67
2022/07/17 20:29:28;;;;;;;3.20;2.12;;;;;;;19.53;56.36;101581.49;5168873;56;1139004;-67
2022/07/17 20:34:35;;;;;;;4.42;2.55;;;;;;;19.49;56.98;101582.75;5204364;56;1139021;-67
2022/07/17 20:39:40;;;;;;;3.30;2.05;;;;;;;19.47;57.23;101572.66;5172890;56;1139101;-67
2022/07/17 20:44:46;;;;;;;2.45;2.25;;;;;;;19.39;56.90;101575.27;5181017;56;1139010;-67
2022/07/17 20:49:52;;;;;;;4.60;2.02;;;;;;;19.26;56.96;101578.27;5183880;56;1139046;-67
2022/07/17 20:55:00;;;;;;;2.83;1.65;;;;;;;18.98;57.83;101569.38;5176608;56;1139054;-67
2022/07/17 21:00:08;;;;;;;4.08;2.25;;;;;;;18.84;58.74;101582.78;5188986;56;1139064;-68
2022/07/17 21:05:13;;;;;;;2.95;1.67;;;;;;;18.60;59.51;101583.78;5178544;56;1139035;-67
2022/07/17 21:10:19;;;;;;;2.22;1.65;;;;;;;18.46;60.27;101582.37;5172540;56;1139114;-67
2022/07/17 21:15:25;;;;;;;7.92;2.45;;;;;;;18.44;61.08;101589.70;5172808;56;1139054;-67
2022/07/17 21:20:31;;;;;;;3.62;2.12;;;;;;;18.47;61.63;101597.47;5177975;56;1139035;-67
2022/07/17 21:25:36;;;;;;;2.70;1.62;;;;;;;18.31;61.73;101594.52;5184381;56;1137053;-67
2022/07/17 21:30:42;;;;;;;6.05;2.87;;;;;;;18.14;62.36;101601.94;5160869;57;1136980;-67
2022/07/17 21:35:48;;;;;;;5.92;3.62;;;;;;;18.17;63.22;101602.50;5178372;56;1136987;-68
2022/07/17 21:40:56;;;;;;;3.90;2.83;;;;;;;18.24;63.63;101602.77;5177908;56;1136988;-67
2022/07/17 21:46:03;;;;;;;4.20;2.35;;;;;;;18.22;63.61;101600.23;5170905;56;1137035;-67
2022/07/17 21:51:09;;;;;;;5.35;2.50;;;;;;;18.15;63.99;101602.29;5166070;56;1137089;-66
2022/07/17 21:56:14;;;;;;;3.80;2.22;;;;;;;18.13;64.50;101604.26;5161314;57;1137152;-66
2022/07/17 22:01:21;;;;;;;5.80;2.03;;;;;;;18.05;64.62;101602.77;5161199;57;1137058;-66
2022/07/17 22:06:28;;;;;;;24.76;2.70;;;;;;;18.01;64.79;101603.56;5122906;57;1137201;-66
2022/07/17 22:11:34;;;;;;;5.60;3.10;;;;;;;17.91;64.92;101602.20;5155449;57;1139043;-66
2022/07/17 22:16:40;;;;;;;4.80;2.40;;;;;;;17.78;65.40;101606.98;5142331;56;1137119;-66
2022/07/17 22:21:45;;;;;;;7.55;3.05;;;;;;;17.73;65.66;101607.88;5174417;56;1137049;-66
2022/07/17 22:26:54;;;;;;;8.00;3.30;;;;;;;17.55;65.78;101610.38;5177797;56;1137239;-66
2022/07/17 22:32:02;;;;;;;4.33;2.90;;;;;;;17.43;66.30;101612.78;5139539;56;1137086;-66
2022/07/17 22:37:08;;;;;;;4.60;2.80;;;;;;;17.36;66.89;101614.33;5150532;56;1137074;-67
2022/07/17 22:42:14;;;;;;;3.97;3.13;;;;;;;17.36;67.41;101615.66;5177967;56;1136998;-67
2022/07/17 22:47:19;;;;;;;4.60;3.37;;;;;;;17.35;67.77;101618.47;5181256;56;1137021;-67
2022/07/17 22:52:25;;;;;;;12.50;5.20;;;;;;;17.33;67.84;101617.76;5181996;56;1134952;-67
2022/07/17 22:57:30;;;;;;;16.47;9.90;;;;;;;17.29;67.87;101623.86;5191127;56;1136997;-67
2022/07/17 23:02:38;;;;;;;16.05;6.83;;;;;;;17.15;67.81;101618.39;5198914;56;1141339;-69
2022/07/17 23:07:44;;;;;;;13.00;5.78;;;;;;;17.06;68.41;101619.22;5039980;57;1141158;-67
2022/07/17 23:12:50;;;;;;;11.10;4.85;;;;;;;16.96;68.43;101606.80;5177483;56;1141350;-67